sensor_id;sensor_type;location;lat;lon;timestamp;pressure;altitude;pressure_sealevel;temperature
5571;BMP180;2808;51.240;6.794;2024-01-15T00:00:56;99838.00;;;1.60
5571;BMP180;2808;51.240;6.794;2024-01-15T00:17:16;99819.00;;;1.60
5571;BMP180;2808;51.240;6.794;2024-01-15T00:19:44;99823.00;;;1.60
5571;BMP180;2808;51.240;6.794;2024-01-15T00:22:19;99819.00;;;1.50
5571;BMP180;2808;51.240;6.794;2024-01-15T00:24:50;99807.00;;;1.50
5571;BMP180;2808;51.240;6.794;2024-01-15T00:27:25;99810.00;;;1.50
5571;BMP180;2808;51.240;6.794;2024-01-15T00:29:53;99805.00;;;1.50
5571;BMP180;2808;51.240;6.794;2024-01-15T00:32:26;99796.00;;;1.50
5571;BMP180;2808;51.240;6.794;2024-01-15T00:34:56;99801.00;;;1.50
5571;BMP180;2808;51.240;6.794;2024-01-15T00:37:28;99800.00;;;1.50
5571;BMP180;2808;51.240;6.794;2024-01-15T00:39:55;99800.00;;;1.50
5571;BMP180;2808;51.240;6.794;2024-01-15T00:42:25;99786.00;;;1.50
5571;BMP180;2808;51.240;6.794;2024-01-15T00:44:52;99776.00;;;1.50
5571;BMP180;2808;51.240;6.794;2024-01-15T00:47:28;99784.00;;;1.50
5571;BMP180;2808;51.240;6.794;2024-01-15T00:50:01;99777.00;;;1.50
5571;BMP180;2808;51.240;6.794;2024-01-15T00:52:29;99784.00;;;1.50
5571;BMP180;2808;51.240;6.794;2024-01-15T00:55:02;99780.00;;;1.50
5571;BMP180;2808;51.240;6.794;2024-01-15T00:57:31;99775.00;;;1.50
5571;BMP180;2808;51.240;6.794;2024-01-15T01:00:11;99775.00;;;1.50
5571;BMP180;2808;51.240;6.794;2024-01-15T01:02:41;99783.00;;;1.50
5571;BMP180;2808;51.240;6.794;2024-01-15T01:05:14;99780.00;;;1.50
5571;BMP180;2808;51.240;6.794;2024-01-15T01:07:46;99775.00;;;1.60
5571;BMP180;2808;51.240;6.794;2024-01-15T01:10:14;99773.00;;;1.60
5571;BMP180;2808;51.240;6.794;2024-01-15T01:12:43;99776.00;;;1.60
5571;BMP180;2808;51.240;6.794;2024-01-15T01:15:18;99771.00;;;1.60
5571;BMP180;2808;51.240;6.794;2024-01-15T01:17:51;99770.00;;;1.60
5571;BMP180;2808;51.240;6.794;2024-01-15T01:20:20;99767.00;;;1.60
5571;BMP180;2808;51.240;6.794;2024-01-15T01:22:54;99766.00;;;1.60
5571;BMP180;2808;51.240;6.794;2024-01-15T01:25:21;99755.00;;;1.60
5571;BMP180;2808;51.240;6.794;2024-01-15T01:27:52;99759.00;;;1.60
5571;BMP180;2808;51.240;6.794;2024-01-15T01:30:22;99761.00;;;1.60
5571;BMP180;2808;51.240;6.794;2024-01-15T01:32:49;99762.00;;;1.70
5571;BMP180;2808;51.240;6.794;2024-01-15T01:35:18;99754.00;;;1.70
5571;BMP180;2808;51.240;6.794;2024-01-15T01:37:45;99764.00;;;1.70
5571;BMP180;2808;51.240;6.794;2024-01-15T01:40:13;99759.00;;;1.70
5571;BMP180;2808;51.240;6.794;2024-01-15T01:42:40;99766.00;;;1.70
5571;BMP180;2808;51.240;6.794;2024-01-15T01:45:11;99748.00;;;1.70
5571;BMP180;2808;51.240;6.794;2024-01-15T01:47:39;99761.00;;;1.70
5571;BMP180;2808;51.240;6.794;2024-01-15T01:50:10;99764.00;;;1.80
5571;BMP180;2808;51.240;6.794;2024-01-15T01:52:40;99759.00;;;1.80
5571;BMP180;2808;51.240;6.794;2024-01-15T01:55:10;99754.00;;;1.80
5571;BMP180;2808;51.240;6.794;2024-01-15T01:57:39;99764.00;;;1.80
5571;BMP180;2808;51.240;6.794;2024-01-15T02:00:11;99766.00;;;1.80
5571;BMP180;2808;51.240;6.794;2024-01-15T02:02:43;99765.00;;;1.80
5571;BMP180;2808;51.240;6.794;2024-01-15T02:05:14;99765.00;;;1.80
5571;BMP180;2808;51.240;6.794;2024-01-15T02:07:47;99771.00;;;1.80
5571;BMP180;2808;51.240;6.794;2024-01-15T02:10:14;99779.00;;;1.80
5571;BMP180;2808;51.240;6.794;2024-01-15T02:12:45;99777.00;;;1.80
5571;BMP180;2808;51.240;6.794;2024-01-15T02:15:14;99788.00;;;1.80
5571;BMP180;2808;51.240;6.794;2024-01-15T02:17:58;99781.00;;;1.80
5571;BMP180;2808;51.240;6.794;2024-01-15T02:20:28;99780.00;;;1.80
5571;BMP180;2808;51.240;6.794;2024-01-15T02:23:11;99775.00;;;1.90
5571;BMP180;2808;51.240;6.794;2024-01-15T02:25:44;99778.00;;;1.90
5571;BMP180;2808;51.240;6.794;2024-01-15T02:28:18;99774.00;;;1.80
5571;BMP180;2808;51.240;6.794;2024-01-15T02:30:50;99768.00;;;1.90
5571;BMP180;2808;51.240;6.794;2024-01-15T02:33:18;99766.00;;;1.90
5571;BMP180;2808;51.240;6.794;2024-01-15T02:35:46;99771.00;;;1.90
5571;BMP180;2808;51.240;6.794;2024-01-15T02:38:20;99771.00;;;1.90
5571;BMP180;2808;51.240;6.794;2024-01-15T02:40:54;99765.00;;;1.90
5571;BMP180;2808;51.240;6.794;2024-01-15T02:43:21;99772.00;;;1.90
5571;BMP180;2808;51.240;6.794;2024-01-15T02:45:49;99769.00;;;1.90
5571;BMP180;2808;51.240;6.794;2024-01-15T02:48:16;99771.00;;;1.90
5571;BMP180;2808;51.240;6.794;2024-01-15T02:50:46;99767.00;;;1.90
5571;BMP180;2808;51.240;6.794;2024-01-15T02:53:14;99777.00;;;1.90
5571;BMP180;2808;51.240;6.794;2024-01-15T02:55:43;99759.00;;;1.90
5571;BMP180;2808;51.240;6.794;2024-01-15T02:58:10;99774.00;;;1.90
5571;BMP180;2808;51.240;6.794;2024-01-15T03:00:38;99768.00;;;1.90
5571;BMP180;2808;51.240;6.794;2024-01-15T03:03:06;99780.00;;;1.90
5571;BMP180;2808;51.240;6.794;2024-01-15T03:05:36;99771.00;;;1.90
5571;BMP180;2808;51.240;6.794;2024-01-15T03:08:04;99767.00;;;1.90
5571;BMP180;2808;51.240;6.794;2024-01-15T03:10:34;99773.00;;;1.90
5571;BMP180;2808;51.240;6.794;2024-01-15T03:13:08;99781.00;;;1.90
5571;BMP180;2808;51.240;6.794;2024-01-15T03:15:39;99771.00;;;1.90
5571;BMP180;2808;51.240;6.794;2024-01-15T03:18:09;99774.00;;;1.90
5571;BMP180;2808;51.240;6.794;2024-01-15T03:20:37;99779.00;;;1.90
5571;BMP180;2808;51.240;6.794;2024-01-15T03:23:07;99775.00;;;1.90
5571;BMP180;2808;51.240;6.794;2024-01-15T03:25:35;99780.00;;;1.90
5571;BMP180;2808;51.240;6.794;2024-01-15T03:28:07;99775.00;;;1.90
5571;BMP180;2808;51.240;6.794;2024-01-15T03:30:37;99771.00;;;1.90
5571;BMP180;2808;51.240;6.794;2024-01-15T03:33:09;99774.00;;;1.90
5571;BMP180;2808;51.240;6.794;2024-01-15T03:35:37;99770.00;;;1.90
5571;BMP180;2808;51.240;6.794;2024-01-15T03:38:13;99776.00;;;1.90
5571;BMP180;2808;51.240;6.794;2024-01-15T03:40:49;99764.00;;;1.90
5571;BMP180;2808;51.240;6.794;2024-01-15T03:43:21;99767.00;;;1.90
5571;BMP180;2808;51.240;6.794;2024-01-15T03:45:51;99762.00;;;1.90
5571;BMP180;2808;51.240;6.794;2024-01-15T03:48:22;99775.00;;;1.90
5571;BMP180;2808;51.240;6.794;2024-01-15T03:50:51;99768.00;;;2.00
5571;BMP180;2808;51.240;6.794;2024-01-15T03:53:20;99764.00;;;2.00
5571;BMP180;2808;51.240;6.794;2024-01-15T03:55:50;99764.00;;;2.00
5571;BMP180;2808;51.240;6.794;2024-01-15T03:58:21;99758.00;;;2.00
5571;BMP180;2808;51.240;6.794;2024-01-15T04:00:51;99759.00;;;2.00
5571;BMP180;2808;51.240;6.794;2024-01-15T04:03:26;99765.00;;;2.00
5571;BMP180;2808;51.240;6.794;2024-01-15T04:05:58;99745.00;;;2.00
5571;BMP180;2808;51.240;6.794;2024-01-15T04:08:28;99755.00;;;2.00
5571;BMP180;2808;51.240;6.794;2024-01-15T04:10:57;99745.00;;;2.00
5571;BMP180;2808;51.240;6.794;2024-01-15T04:13:32;99739.00;;;2.00
5571;BMP180;2808;51.240;6.794;2024-01-15T04:16:04;99739.00;;;1.90
5571;BMP180;2808;51.240;6.794;2024-01-15T04:18:31;99742.00;;;1.90
5571;BMP180;2808;51.240;6.794;2024-01-15T04:21:03;99730.00;;;1.90
5571;BMP180;2808;51.240;6.794;2024-01-15T04:23:31;99729.00;;;1.90
5571;BMP180;2808;51.240;6.794;2024-01-15T04:26:01;99727.00;;;1.90
5571;BMP180;2808;51.240;6.794;2024-01-15T04:28:29;99720.00;;;1.90
5571;BMP180;2808;51.240;6.794;2024-01-15T04:30:57;99721.00;;;2.00
5571;BMP180;2808;51.240;6.794;2024-01-15T04:33:26;99718.00;;;1.90
5571;BMP180;2808;51.240;6.794;2024-01-15T04:35:56;99717.00;;;1.90
5571;BMP180;2808;51.240;6.794;2024-01-15T04:38:23;99713.00;;;1.90
5571;BMP180;2808;51.240;6.794;2024-01-15T04:40:51;99716.00;;;1.90
5571;BMP180;2808;51.240;6.794;2024-01-15T04:43:18;99711.00;;;1.90
5571;BMP180;2808;51.240;6.794;2024-01-15T04:45:47;99720.00;;;1.90
5571;BMP180;2808;51.240;6.794;2024-01-15T04:48:18;99719.00;;;1.90
5571;BMP180;2808;51.240;6.794;2024-01-15T04:50:48;99720.00;;;1.90
5571;BMP180;2808;51.240;6.794;2024-01-15T04:53:18;99711.00;;;1.90
5571;BMP180;2808;51.240;6.794;2024-01-15T04:55:49;99707.00;;;1.90
5571;BMP180;2808;51.240;6.794;2024-01-15T04:58:17;99715.00;;;1.90
5571;BMP180;2808;51.240;6.794;2024-01-15T05:00:47;99713.00;;;1.90
5571;BMP180;2808;51.240;6.794;2024-01-15T05:03:15;99699.00;;;1.90
5571;BMP180;2808;51.240;6.794;2024-01-15T05:05:45;99712.00;;;1.90
5571;BMP180;2808;51.240;6.794;2024-01-15T05:08:14;99714.00;;;1.90
5571;BMP180;2808;51.240;6.794;2024-01-15T05:10:42;99704.00;;;1.90
5571;BMP180;2808;51.240;6.794;2024-01-15T05:13:12;99713.00;;;2.00
5571;BMP180;2808;51.240;6.794;2024-01-15T05:15:40;99701.00;;;2.00
5571;BMP180;2808;51.240;6.794;2024-01-15T05:18:09;99701.00;;;2.00
5571;BMP180;2808;51.240;6.794;2024-01-15T05:20:36;99702.00;;;2.00
5571;BMP180;2808;51.240;6.794;2024-01-15T05:23:06;99688.00;;;2.00
5571;BMP180;2808;51.240;6.794;2024-01-15T05:25:33;99698.00;;;2.00
5571;BMP180;2808;51.240;6.794;2024-01-15T05:28:01;99704.00;;;2.00
5571;BMP180;2808;51.240;6.794;2024-01-15T05:30:28;99700.00;;;2.00
5571;BMP180;2808;51.240;6.794;2024-01-15T05:32:56;99706.00;;;2.00
5571;BMP180;2808;51.240;6.794;2024-01-15T05:35:27;99709.00;;;2.10
5571;BMP180;2808;51.240;6.794;2024-01-15T05:37:57;99692.00;;;2.10
5571;BMP180;2808;51.240;6.794;2024-01-15T05:40:25;99692.00;;;2.10
5571;BMP180;2808;51.240;6.794;2024-01-15T05:42:53;99682.00;;;2.10
5571;BMP180;2808;51.240;6.794;2024-01-15T05:45:20;99681.00;;;2.10
5571;BMP180;2808;51.240;6.794;2024-01-15T05:47:48;99688.00;;;2.10
5571;BMP180;2808;51.240;6.794;2024-01-15T05:50:16;99686.00;;;2.10
5571;BMP180;2808;51.240;6.794;2024-01-15T05:52:48;99684.00;;;2.10
5571;BMP180;2808;51.240;6.794;2024-01-15T05:55:15;99685.00;;;2.10
5571;BMP180;2808;51.240;6.794;2024-01-15T05:57:53;99676.00;;;2.10
5571;BMP180;2808;51.240;6.794;2024-01-15T06:00:27;99667.00;;;2.10
5571;BMP180;2808;51.240;6.794;2024-01-15T06:03:02;99674.00;;;2.10
5571;BMP180;2808;51.240;6.794;2024-01-15T06:05:33;99667.00;;;2.10
5571;BMP180;2808;51.240;6.794;2024-01-15T06:08:02;99662.00;;;2.10
5571;BMP180;2808;51.240;6.794;2024-01-15T06:10:29;99668.00;;;2.10
5571;BMP180;2808;51.240;6.794;2024-01-15T06:12:57;99667.00;;;2.10
5571;BMP180;2808;51.240;6.794;2024-01-15T06:15:24;99648.00;;;2.10
5571;BMP180;2808;51.240;6.794;2024-01-15T06:17:52;99650.00;;;2.10
5571;BMP180;2808;51.240;6.794;2024-01-15T06:20:22;99646.00;;;2.10
5571;BMP180;2808;51.240;6.794;2024-01-15T06:22:53;99655.00;;;2.10
5571;BMP180;2808;51.240;6.794;2024-01-15T06:25:38;99661.00;;;2.20
5571;BMP180;2808;51.240;6.794;2024-01-15T06:28:08;99654.00;;;2.20
5571;BMP180;2808;51.240;6.794;2024-01-15T06:30:39;99654.00;;;2.20
5571;BMP180;2808;51.240;6.794;2024-01-15T06:33:21;99650.00;;;2.20
5571;BMP180;2808;51.240;6.794;2024-01-15T06:35:49;99652.00;;;2.20
5571;BMP180;2808;51.240;6.794;2024-01-15T06:38:16;99651.00;;;2.20
5571;BMP180;2808;51.240;6.794;2024-01-15T06:40:48;99657.00;;;2.20
5571;BMP180;2808;51.240;6.794;2024-01-15T06:43:18;99650.00;;;2.20
5571;BMP180;2808;51.240;6.794;2024-01-15T06:45:46;99652.00;;;2.20
5571;BMP180;2808;51.240;6.794;2024-01-15T06:48:13;99660.00;;;2.20
5571;BMP180;2808;51.240;6.794;2024-01-15T06:50:45;99660.00;;;2.20
5571;BMP180;2808;51.240;6.794;2024-01-15T06:53:22;99664.00;;;2.20
5571;BMP180;2808;51.240;6.794;2024-01-15T06:56:06;99660.00;;;2.20
5571;BMP180;2808;51.240;6.794;2024-01-15T06:58:33;99668.00;;;2.20
5571;BMP180;2808;51.240;6.794;2024-01-15T07:01:01;99673.00;;;2.20
5571;BMP180;2808;51.240;6.794;2024-01-15T07:03:28;99662.00;;;2.20
5571;BMP180;2808;51.240;6.794;2024-01-15T07:06:04;99664.00;;;2.10
5571;BMP180;2808;51.240;6.794;2024-01-15T07:08:36;99656.00;;;2.10
5571;BMP180;2808;51.240;6.794;2024-01-15T07:11:14;99660.00;;;2.10
5571;BMP180;2808;51.240;6.794;2024-01-15T07:13:43;99655.00;;;2.10
5571;BMP180;2808;51.240;6.794;2024-01-15T07:16:15;99642.00;;;2.10
5571;BMP180;2808;51.240;6.794;2024-01-15T07:18:42;99646.00;;;2.10
5571;BMP180;2808;51.240;6.794;2024-01-15T07:21:10;99639.00;;;2.10
5571;BMP180;2808;51.240;6.794;2024-01-15T07:23:38;99652.00;;;2.10
5571;BMP180;2808;51.240;6.794;2024-01-15T07:26:09;99649.00;;;2.10
5571;BMP180;2808;51.240;6.794;2024-01-15T07:28:37;99651.00;;;2.10
5571;BMP180;2808;51.240;6.794;2024-01-15T07:31:07;99650.00;;;2.10
5571;BMP180;2808;51.240;6.794;2024-01-15T07:33:35;99648.00;;;2.20
5571;BMP180;2808;51.240;6.794;2024-01-15T07:36:03;99635.00;;;2.20
5571;BMP180;2808;51.240;6.794;2024-01-15T07:38:32;99651.00;;;2.20
5571;BMP180;2808;51.240;6.794;2024-01-15T07:41:00;99648.00;;;2.10
5571;BMP180;2808;51.240;6.794;2024-01-15T07:43:28;99648.00;;;2.20
5571;BMP180;2808;51.240;6.794;2024-01-15T07:45:59;99638.00;;;2.20
5571;BMP180;2808;51.240;6.794;2024-01-15T07:48:28;99647.00;;;2.20
5571;BMP180;2808;51.240;6.794;2024-01-15T07:50:59;99655.00;;;2.20
5571;BMP180;2808;51.240;6.794;2024-01-15T07:53:27;99652.00;;;2.20
5571;BMP180;2808;51.240;6.794;2024-01-15T07:55:54;99650.00;;;2.20
5571;BMP180;2808;51.240;6.794;2024-01-15T07:58:25;99647.00;;;2.20
5571;BMP180;2808;51.240;6.794;2024-01-15T08:00:52;99647.00;;;2.20
5571;BMP180;2808;51.240;6.794;2024-01-15T08:03:23;99641.00;;;2.10
5571;BMP180;2808;51.240;6.794;2024-01-15T08:06:14;99642.00;;;2.10
5571;BMP180;2808;51.240;6.794;2024-01-15T08:08:51;99643.00;;;2.10
5571;BMP180;2808;51.240;6.794;2024-01-15T08:11:31;99639.00;;;2.00
5571;BMP180;2808;51.240;6.794;2024-01-15T08:14:22;99647.00;;;2.00
5571;BMP180;2808;51.240;6.794;2024-01-15T08:16:53;99642.00;;;2.00
5571;BMP180;2808;51.240;6.794;2024-01-15T08:19:33;99641.00;;;2.00
5571;BMP180;2808;51.240;6.794;2024-01-15T08:22:03;99630.00;;;2.00
5571;BMP180;2808;51.240;6.794;2024-01-15T08:24:30;99639.00;;;2.00
5571;BMP180;2808;51.240;6.794;2024-01-15T08:27:00;99633.00;;;2.00
5571;BMP180;2808;51.240;6.794;2024-01-15T08:29:28;99637.00;;;2.00
5571;BMP180;2808;51.240;6.794;2024-01-15T08:32:00;99633.00;;;2.00
5571;BMP180;2808;51.240;6.794;2024-01-15T08:34:39;99639.00;;;2.00
5571;BMP180;2808;51.240;6.794;2024-01-15T08:37:10;99646.00;;;2.00
5571;BMP180;2808;51.240;6.794;2024-01-15T08:39:40;99640.00;;;2.00
5571;BMP180;2808;51.240;6.794;2024-01-15T08:42:14;99641.00;;;1.90
5571;BMP180;2808;51.240;6.794;2024-01-15T08:44:50;99647.00;;;1.90
5571;BMP180;2808;51.240;6.794;2024-01-15T08:47:29;99647.00;;;1.90
5571;BMP180;2808;51.240;6.794;2024-01-15T08:50:14;99644.00;;;1.90
5571;BMP180;2808;51.240;6.794;2024-01-15T08:53:19;99646.00;;;1.80
5571;BMP180;2808;51.240;6.794;2024-01-15T08:56:28;99645.00;;;1.80
5571;BMP180;2808;51.240;6.794;2024-01-15T09:00:03;99648.00;;;1.90
5571;BMP180;2808;51.240;6.794;2024-01-15T09:02:33;99655.00;;;1.90
5571;BMP180;2808;51.240;6.794;2024-01-15T09:05:21;99655.00;;;1.90
5571;BMP180;2808;51.240;6.794;2024-01-15T09:08:55;99660.00;;;1.90
5571;BMP180;2808;51.240;6.794;2024-01-15T09:12:15;99669.00;;;1.90
5571;BMP180;2808;51.240;6.794;2024-01-15T09:15:36;99670.00;;;1.80
5571;BMP180;2808;51.240;6.794;2024-01-15T09:40:39;99684.00;;;1.80
5571;BMP180;2808;51.240;6.794;2024-01-15T09:43:21;99674.00;;;1.80
5571;BMP180;2808;51.240;6.794;2024-01-15T09:49:04;99683.00;;;1.90
5571;BMP180;2808;51.240;6.794;2024-01-15T09:51:44;99689.00;;;1.90
5571;BMP180;2808;51.240;6.794;2024-01-15T09:54:33;99690.00;;;1.90
5571;BMP180;2808;51.240;6.794;2024-01-15T09:57:13;99689.00;;;1.90
5571;BMP180;2808;51.240;6.794;2024-01-15T10:10:34;99695.00;;;1.90
5571;BMP180;2808;51.240;6.794;2024-01-15T10:13:23;99693.00;;;2.00
5571;BMP180;2808;51.240;6.794;2024-01-15T10:15:55;99702.00;;;2.00
5571;BMP180;2808;51.240;6.794;2024-01-15T10:18:26;99687.00;;;2.10
5571;BMP180;2808;51.240;6.794;2024-01-15T10:21:18;99692.00;;;2.10
5571;BMP180;2808;51.240;6.794;2024-01-15T10:24:16;99693.00;;;2.10
5571;BMP180;2808;51.240;6.794;2024-01-15T10:27:21;99696.00;;;2.10
5571;BMP180;2808;51.240;6.794;2024-01-15T10:37:21;99687.00;;;2.10
5571;BMP180;2808;51.240;6.794;2024-01-15T10:40:57;99685.00;;;2.10
5571;BMP180;2808;51.240;6.794;2024-01-15T10:43:55;99682.00;;;2.10
5571;BMP180;2808;51.240;6.794;2024-01-15T10:47:04;99684.00;;;2.10
5571;BMP180;2808;51.240;6.794;2024-01-15T10:49:38;99687.00;;;2.10
5571;BMP180;2808;51.240;6.794;2024-01-15T10:52:23;99684.00;;;2.10
5571;BMP180;2808;51.240;6.794;2024-01-15T10:54:59;99693.00;;;2.20
5571;BMP180;2808;51.240;6.794;2024-01-15T10:57:48;99688.00;;;2.20
5571;BMP180;2808;51.240;6.794;2024-01-15T11:00:59;99690.00;;;2.20
5571;BMP180;2808;51.240;6.794;2024-01-15T11:07:04;99691.00;;;2.40
5571;BMP180;2808;51.240;6.794;2024-01-15T11:09:43;99694.00;;;2.40
5571;BMP180;2808;51.240;6.794;2024-01-15T11:12:19;99694.00;;;2.30
5571;BMP180;2808;51.240;6.794;2024-01-15T11:18:41;99691.00;;;2.40
5571;BMP180;2808;51.240;6.794;2024-01-15T11:21:23;99690.00;;;2.40
5571;BMP180;2808;51.240;6.794;2024-01-15T11:27:42;99695.00;;;2.50
5571;BMP180;2808;51.240;6.794;2024-01-15T11:30:55;99691.00;;;2.60
5571;BMP180;2808;51.240;6.794;2024-01-15T11:39:52;99681.00;;;2.70
5571;BMP180;2808;51.240;6.794;2024-01-15T11:42:33;99669.00;;;2.80
5571;BMP180;2808;51.240;6.794;2024-01-15T11:45:12;99685.00;;;2.80
5571;BMP180;2808;51.240;6.794;2024-01-15T11:48:13;99673.00;;;2.80
5571;BMP180;2808;51.240;6.794;2024-01-15T11:51:25;99677.00;;;2.80
5571;BMP180;2808;51.240;6.794;2024-01-15T12:05:15;99690.00;;;3.00
5571;BMP180;2808;51.240;6.794;2024-01-15T12:11:54;99685.00;;;3.00
5571;BMP180;2808;51.240;6.794;2024-01-15T12:18:45;99686.00;;;2.90
5571;BMP180;2808;51.240;6.794;2024-01-15T12:21:41;99689.00;;;3.00
5571;BMP180;2808;51.240;6.794;2024-01-15T12:24:23;99688.00;;;2.90
5571;BMP180;2808;51.240;6.794;2024-01-15T12:26:57;99686.00;;;2.90
5571;BMP180;2808;51.240;6.794;2024-01-15T12:32:48;99689.00;;;2.90
5571;BMP180;2808;51.240;6.794;2024-01-15T12:35:18;99697.00;;;2.90
5571;BMP180;2808;51.240;6.794;2024-01-15T12:38:02;99692.00;;;2.90
5571;BMP180;2808;51.240;6.794;2024-01-15T12:40:34;99683.00;;;2.90
5571;BMP180;2808;51.240;6.794;2024-01-15T12:43:07;99691.00;;;2.90
5571;BMP180;2808;51.240;6.794;2024-01-15T12:45:35;99689.00;;;2.90
5571;BMP180;2808;51.240;6.794;2024-01-15T12:48:04;99692.00;;;3.00
5571;BMP180;2808;51.240;6.794;2024-01-15T12:50:33;99699.00;;;3.00
5571;BMP180;2808;51.240;6.794;2024-01-15T12:53:03;99714.00;;;3.00
5571;BMP180;2808;51.240;6.794;2024-01-15T12:55:31;99712.00;;;3.00
5571;BMP180;2808;51.240;6.794;2024-01-15T12:58:00;99704.00;;;3.00
5571;BMP180;2808;51.240;6.794;2024-01-15T13:00:46;99704.00;;;3.00
5571;BMP180;2808;51.240;6.794;2024-01-15T13:03:26;99707.00;;;3.00
5571;BMP180;2808;51.240;6.794;2024-01-15T13:05:54;99717.00;;;3.00
5571;BMP180;2808;51.240;6.794;2024-01-15T13:08:23;99708.00;;;3.00
5571;BMP180;2808;51.240;6.794;2024-01-15T13:10:53;99703.00;;;3.10
5571;BMP180;2808;51.240;6.794;2024-01-15T13:13:23;99703.00;;;3.10
5571;BMP180;2808;51.240;6.794;2024-01-15T13:15:50;99707.00;;;3.00
5571;BMP180;2808;51.240;6.794;2024-01-15T13:18:18;99706.00;;;3.00
5571;BMP180;2808;51.240;6.794;2024-01-15T13:20:49;99702.00;;;3.00
5571;BMP180;2808;51.240;6.794;2024-01-15T13:23:16;99693.00;;;2.90
5571;BMP180;2808;51.240;6.794;2024-01-15T13:25:46;99688.00;;;2.90
5571;BMP180;2808;51.240;6.794;2024-01-15T13:28:13;99704.00;;;2.80
5571;BMP180;2808;51.240;6.794;2024-01-15T13:30:41;99711.00;;;2.80
5571;BMP180;2808;51.240;6.794;2024-01-15T13:33:09;99710.00;;;2.80
5571;BMP180;2808;51.240;6.794;2024-01-15T13:35:42;99713.00;;;2.80
5571;BMP180;2808;51.240;6.794;2024-01-15T13:38:10;99707.00;;;2.80
5571;BMP180;2808;51.240;6.794;2024-01-15T13:40:37;99718.00;;;2.80
5571;BMP180;2808;51.240;6.794;2024-01-15T13:43:06;99717.00;;;2.80
5571;BMP180;2808;51.240;6.794;2024-01-15T13:46:13;99726.00;;;2.70
5571;BMP180;2808;51.240;6.794;2024-01-15T13:49:19;99718.00;;;2.80
5571;BMP180;2808;51.240;6.794;2024-01-15T13:52:04;99728.00;;;2.70
5571;BMP180;2808;51.240;6.794;2024-01-15T13:54:34;99727.00;;;2.70
5571;BMP180;2808;51.240;6.794;2024-01-15T13:57:10;99739.00;;;2.60
5571;BMP180;2808;51.240;6.794;2024-01-15T13:59:56;99738.00;;;2.60
5571;BMP180;2808;51.240;6.794;2024-01-15T14:02:53;99745.00;;;2.60
5571;BMP180;2808;51.240;6.794;2024-01-15T14:05:39;99753.00;;;2.60
5571;BMP180;2808;51.240;6.794;2024-01-15T14:08:07;99750.00;;;2.50
5571;BMP180;2808;51.240;6.794;2024-01-15T14:11:38;99760.00;;;2.50
5571;BMP180;2808;51.240;6.794;2024-01-15T14:14:14;99767.00;;;2.50
5571;BMP180;2808;51.240;6.794;2024-01-15T14:16:44;99765.00;;;2.60
5571;BMP180;2808;51.240;6.794;2024-01-15T14:19:14;99773.00;;;2.60
5571;BMP180;2808;51.240;6.794;2024-01-15T14:21:46;99770.00;;;2.60
5571;BMP180;2808;51.240;6.794;2024-01-15T14:24:13;99777.00;;;2.60
5571;BMP180;2808;51.240;6.794;2024-01-15T14:26:42;99770.00;;;2.70
5571;BMP180;2808;51.240;6.794;2024-01-15T14:29:09;99776.00;;;2.70
5571;BMP180;2808;51.240;6.794;2024-01-15T14:31:40;99777.00;;;2.70
5571;BMP180;2808;51.240;6.794;2024-01-15T14:34:09;99775.00;;;2.70
5571;BMP180;2808;51.240;6.794;2024-01-15T14:36:47;99790.00;;;2.70
5571;BMP180;2808;51.240;6.794;2024-01-15T14:39:15;99805.00;;;2.70
5571;BMP180;2808;51.240;6.794;2024-01-15T14:41:43;99805.00;;;2.70
5571;BMP180;2808;51.240;6.794;2024-01-15T14:44:10;99811.00;;;2.60
5571;BMP180;2808;51.240;6.794;2024-01-15T14:46:46;99822.00;;;2.60
5571;BMP180;2808;51.240;6.794;2024-01-15T14:49:19;99826.00;;;2.60
5571;BMP180;2808;51.240;6.794;2024-01-15T14:51:48;99838.00;;;2.60
5571;BMP180;2808;51.240;6.794;2024-01-15T14:54:18;99829.00;;;2.50
5571;BMP180;2808;51.240;6.794;2024-01-15T14:56:46;99841.00;;;2.50
5571;BMP180;2808;51.240;6.794;2024-01-15T14:59:21;99840.00;;;2.50
5571;BMP180;2808;51.240;6.794;2024-01-15T15:02:01;99847.00;;;2.40
5571;BMP180;2808;51.240;6.794;2024-01-15T15:04:31;99856.00;;;2.40
5571;BMP180;2808;51.240;6.794;2024-01-15T15:10:12;99856.00;;;2.40
5571;BMP180;2808;51.240;6.794;2024-01-15T15:12:39;99868.00;;;2.40
5571;BMP180;2808;51.240;6.794;2024-01-15T15:15:07;99867.00;;;2.40
5571;BMP180;2808;51.240;6.794;2024-01-15T15:17:37;99856.00;;;2.40
5571;BMP180;2808;51.240;6.794;2024-01-15T15:20:10;99872.00;;;2.50
5571;BMP180;2808;51.240;6.794;2024-01-15T15:22:38;99869.00;;;2.40
5571;BMP180;2808;51.240;6.794;2024-01-15T15:25:18;99867.00;;;2.40
5571;BMP180;2808;51.240;6.794;2024-01-15T15:28:01;99875.00;;;2.30
5571;BMP180;2808;51.240;6.794;2024-01-15T15:30:35;99879.00;;;2.30
5571;BMP180;2808;51.240;6.794;2024-01-15T15:33:05;99883.00;;;2.30
5571;BMP180;2808;51.240;6.794;2024-01-15T15:35:34;99884.00;;;2.30
5571;BMP180;2808;51.240;6.794;2024-01-15T15:38:02;99882.00;;;2.30
5571;BMP180;2808;51.240;6.794;2024-01-15T15:40:29;99895.00;;;2.20
5571;BMP180;2808;51.240;6.794;2024-01-15T15:43:03;99899.00;;;2.20
5571;BMP180;2808;51.240;6.794;2024-01-15T15:45:39;99912.00;;;2.20
5571;BMP180;2808;51.240;6.794;2024-01-15T15:48:09;99908.00;;;2.10
5571;BMP180;2808;51.240;6.794;2024-01-15T15:50:44;99915.00;;;2.10
5571;BMP180;2808;51.240;6.794;2024-01-15T15:53:12;99923.00;;;2.10
5571;BMP180;2808;51.240;6.794;2024-01-15T15:55:40;99926.00;;;2.00
5571;BMP180;2808;51.240;6.794;2024-01-15T15:58:25;99930.00;;;2.00
5571;BMP180;2808;51.240;6.794;2024-01-15T16:00:58;99943.00;;;2.00
5571;BMP180;2808;51.240;6.794;2024-01-15T16:03:32;99940.00;;;2.00
5571;BMP180;2808;51.240;6.794;2024-01-15T16:06:41;99939.00;;;2.00
5571;BMP180;2808;51.240;6.794;2024-01-15T16:09:58;99939.00;;;1.90
5571;BMP180;2808;51.240;6.794;2024-01-15T16:12:30;99943.00;;;1.90
5571;BMP180;2808;51.240;6.794;2024-01-15T16:15:24;99942.00;;;1.90
5571;BMP180;2808;51.240;6.794;2024-01-15T16:20:51;99948.00;;;1.90
5571;BMP180;2808;51.240;6.794;2024-01-15T16:23:24;99944.00;;;1.90
5571;BMP180;2808;51.240;6.794;2024-01-15T16:26:06;99949.00;;;1.80
5571;BMP180;2808;51.240;6.794;2024-01-15T16:29:02;99948.00;;;1.80
5571;BMP180;2808;51.240;6.794;2024-01-15T16:33:40;99945.00;;;1.80
5571;BMP180;2808;51.240;6.794;2024-01-15T16:35:43;99961.00;;;1.90
5571;BMP180;2808;51.240;6.794;2024-01-15T16:44:58;99961.00;;;1.80
5571;BMP180;2808;51.240;6.794;2024-01-15T16:47:36;99963.00;;;1.80
5571;BMP180;2808;51.240;6.794;2024-01-15T16:50:24;99975.00;;;1.80
5571;BMP180;2808;51.240;6.794;2024-01-15T16:53:08;99976.00;;;1.80
5571;BMP180;2808;51.240;6.794;2024-01-15T16:56:14;99973.00;;;1.80
5571;BMP180;2808;51.240;6.794;2024-01-15T16:59:00;99976.00;;;1.80
5571;BMP180;2808;51.240;6.794;2024-01-15T17:01:29;99973.00;;;1.70
5571;BMP180;2808;51.240;6.794;2024-01-15T17:04:28;99982.00;;;1.70
5571;BMP180;2808;51.240;6.794;2024-01-15T17:07:00;99986.00;;;1.70
5571;BMP180;2808;51.240;6.794;2024-01-15T17:09:40;99991.00;;;1.70
5571;BMP180;2808;51.240;6.794;2024-01-15T17:15:49;99993.00;;;1.70
5571;BMP180;2808;51.240;6.794;2024-01-15T17:18:22;100000.00;;;1.70
5571;BMP180;2808;51.240;6.794;2024-01-15T17:20:56;99995.00;;;1.70
5571;BMP180;2808;51.240;6.794;2024-01-15T17:24:07;100001.00;;;1.60
5571;BMP180;2808;51.240;6.794;2024-01-15T17:26:42;100009.00;;;1.60
5571;BMP180;2808;51.240;6.794;2024-01-15T17:29:13;100009.00;;;1.60